METAR Data
IDs: Format: Raw Decoded Include TAF

Data at: 1531 UTC 04 Aug 2021

KCWF 041455Z 04005KT 10SM SCT015 28/23 A2999
KCWF 041255Z 02006KT 7SM SCT009 BKN018 24/23 A2997
KCWF 041150Z 02006KT 7SM BKN004 24/23 A2996
KCWF 041100Z 04007KT 10SM BKN004 24/23 A2994
KCWF 041035Z AUTO 03005KT 7SM OVC004 24/23 A2994 RMK AO2 LTG DSNT SE THRU SW T02370226
KCWF 041015Z AUTO 03005KT 7SM OVC004 24/23 A2994 RMK AO2 LTG DSNT S T02380227
KCWF 040955Z AUTO 04004KT 7SM OVC004 24/23 A2994 RMK AO2 LTG DSNT S T02390228
KCWF 040935Z AUTO 05004KT 7SM OVC004 24/23 A2994 RMK AO2 LTG DSNT S T02390229
KCWF 040915Z AUTO 05007KT 7SM OVC004 24/23 A2994 RMK AO2 LTG DSNT S T02390229
KCWF 040855Z AUTO 06005KT 7SM OVC004 24/23 A2993 RMK AO2 LTG DSNT SE T02390228
KCWF 040835Z AUTO 05006KT 10SM BKN006 24/23 A2993 RMK AO2 LTG DSNT SE T02390228
KCWF 040815Z AUTO 03005KT 10SM CLR 24/23 A2993 RMK AO2 LTG DSNT SW T02390228
KCWF 040755Z AUTO 03005KT 10SM CLR 24/23 A2993 RMK AO2 LTG DSNT SE T02400229
KCWF 040735Z AUTO 03005KT 10SM CLR 24/23 A2994 RMK AO2 T02410230
KCWF 040715Z AUTO 02004KT 10SM SCT110 24/23 A2994 RMK AO2 T02410229
KCWF 040655Z AUTO 02003KT 10SM SCT110 24/23 A2994 RMK AO2 LTG DSNT SE T02420229
KCWF 040635Z AUTO 02003KT 10SM CLR 24/23 A2995 RMK AO2 LTG DSNT SE T02420229
KCWF 040615Z AUTO 01004KT 10SM CLR 24/23 A2994 RMK AO2 LTG DSNT SE T02430228
KCWF 040555Z AUTO 02005KT 10SM CLR 24/23 A2994 RMK AO2 LTG DSNT SE T02440229 10286 20244
KCWF 040535Z AUTO 03004KT 10SM CLR 25/23 A2994 RMK AO2 T02460229
KCWF 040515Z AUTO 01005KT 10SM CLR 25/23 A2994 RMK AO2 LTG DSNT SE T02480230
KCWF 040455Z AUTO 03004KT 10SM CLR 25/23 A2994 RMK AO2 T02500230
KCWF 040435Z AUTO 03006KT 10SM CLR 25/23 A2994 RMK AO2 T02520233
KCWF 040415Z AUTO 03005KT 10SM CLR 25/23 A2994 RMK AO2 T02550235
KCWF 040355Z AUTO 02005KT 10SM CLR 25/24 A2994 RMK AO2 T02550237
KCWF 040335Z AUTO 01004KT 10SM CLR 26/24 A2994 RMK AO2 LTG DSNT SE T02570237
KCWF 040315Z AUTO 35003KT 10SM CLR 26/24 A2993 RMK AO2 T02590239
KCWF 040255Z 02004KT 10SM SKC 26/24 A2992 RMK LAST
KCWF 040155Z 00000KT 10SM SCT030 27/24 A2991
KCWF 040054Z 04004KT 10SM SKC 28/23 A2989
KCWF 032350Z 03004KT 10SM SCT020 28/24 A2989
KCWF 032252Z 03004KT 10SM SCT030 29/23 A2988
KCWF 032149Z 33005KT 10SM BKN025 29/24 A2989
KCWF 032055Z 34007KT 10SM BKN016 29/24 A2989
KCWF 031955Z 25008KT 10SM BKN016 BKN024 28/24 A2990
KCWF 031905Z 24006KT 10SM SCT008 BKN011 BKN037 27/24 A2994
KCWF 031845Z 21006KT 10SM TS BKN007 BKN070 26/24 A2994 RMK TS NE AND E
KCWF 031755Z COR 24007KT 6SM -TSRABR BKN009 BKN033 25/23 A2996 RMK TS NW AND E
KCWF 031655Z 24010KT 2SM TSRABR BKN007 OVC012 25/23 A2997 RMK TS W MOV E
KCWF 031555Z 23007KT 1SM TSRABR BKN005 OVC014 26/24 A2997 RMK TSB50 TS W MOV E
KCWF 031455Z 00000KT 10SM BKN015 BKN065 27/24 A2997
KCWF 031345Z 00000KT 10SM SCT034 BKN055 26/24 A2994
KCWF 031245Z 00000KT 10SM SCT008 BKN060 25/24 A2995
KCWF 031145Z 00000KT 10SM BKN090 25/23 A2994
KCWF 031100Z 00000KT 10SM BKN120 24/23 A2993
KCWF 031035Z AUTO 00000KT 10SM SCT100 24/24 A2993 RMK AO2 T02450236
KCWF 031015Z AUTO 12003KT 10SM OVC100 24/24 A2993 RMK AO2 LTG DSNT SW T02450236
KCWF 030955Z AUTO 00000KT 10SM OVC100 24/24 A2994 RMK AO2 LTG DSNT E AND SE P0001 T02450236
KCWF 030935Z AUTO 00000KT 5SM BR SCT002 SCT037 OVC100 25/24 A2993 RMK AO2 LTG DSNT SW P0001 T02480241
KCWF 030915Z AUTO 00000KT 4SM BR SCT042 SCT050 OVC100 25/24 A2994 RMK AO2 LTG DSNT SE P0001 T02490241
KCWF 030855Z AUTO 00000KT 7SM VCTSBR SCT040 SCT050 BKN100 25/24 A2994 RMK AO2 LTG DSNT SE THRU SW P0003 T02500242 60003
KCWF 030835Z AUTO 00000KT 3 1/2SM VCTSRA BR SCT026 BKN050 OVC090 25/24 A2994 RMK AO2 LTG DSNT S P0003 T02480240
KCWF 030815Z AUTO 00000KT 7SM BR SCT001 BKN042 OVC060 25/24 A2995 RMK AO2 LTG DSNT SW T02480240
KCWF 030755Z AUTO 00000KT 2SM BR BKN001 OVC044 25/24 A2994 RMK AO2 LTG DSNT SE THRU SW T02470239
KCWF 030735Z AUTO 36004KT 3SM VCTSBR SCT001 SCT050 25/24 A2994 RMK AO2 LTG DSNT SE THRU SW T02470238
KCWF 030715Z AUTO 33003KT 7SM SCT050 25/24 A2994 RMK AO2 LTG DSNT SE THRU SW T02480239
KCWF 030655Z AUTO 00000KT 7SM BR SCT050 25/24 A2995 RMK AO2 LTG DSNT SW T02470238
KCWF 030635Z AUTO 00000KT 7SM CLR 25/24 A2996 RMK AO2 LTG DSNT SW T02460237
KCWF 030615Z AUTO 00000KT 7SM SCT007 25/24 A2996 RMK AO2 LTG DSNT SW T02480238
KCWF 030555Z AUTO 00000KT 10SM CLR 25/24 A2996 RMK AO2 LTG DSNT SW T02470237 10260 20246
KCWF 030535Z AUTO 09003KT 10SM CLR 25/24 A2996 RMK AO2 T02460236
KCWF 030515Z AUTO 00000KT 10SM CLR 25/24 A2997 RMK AO2 LTG DSNT E THRU SW T02470237
KCWF 030455Z AUTO 00000KT 10SM SCT060 25/24 A2997 RMK AO2 LTG DSNT E AND S T02470237
KCWF 030435Z AUTO 00000KT 10SM BKN060 25/24 A2997 RMK AO2 LTG DSNT E THRU SW T02490238
KCWF 030415Z AUTO 00000KT 10SM SCT060 25/24 A2997 RMK AO2 LTG DSNT W T02510239
KCWF 030355Z AUTO 05003KT 10SM CLR 25/24 A2997 RMK AO2 LTG DSNT E SW AND W T02500238
KCWF 030335Z AUTO 00000KT 10SM CLR 25/24 A2997 RMK AO2 LTG DSNT E T02530240